createdAt,value
2023-05-09T00:00:13.764Z,26.16
2023-05-09T00:01:13.817Z,31.37
2023-05-09T00:02:13.901Z,32.11
2023-05-09T00:03:13.953Z,30.80
2023-05-09T00:04:14.004Z,29.50
2023-05-09T00:05:14.200Z,32.87
2023-05-09T00:06:14.198Z,31.76
2023-05-09T00:07:14.120Z,30.16
2023-05-09T00:08:14.169Z,30.00
2023-05-09T00:09:14.216Z,30.72
2023-05-09T00:10:14.287Z,32.13
2023-05-09T00:11:14.332Z,33.08
2023-05-09T00:12:14.371Z,32.35
2023-05-09T00:13:14.449Z,32.67
2023-05-09T00:14:14.442Z,32.85
2023-05-09T00:15:14.674Z,32.34
2023-05-09T00:16:14.498Z,33.67
2023-05-09T00:17:14.540Z,35.08
2023-05-09T00:18:14.490Z,33.13
2023-05-09T00:19:14.534Z,30.21
2023-05-09T00:20:14.535Z,33.55
2023-05-09T00:21:14.564Z,33.69
2023-05-09T00:22:14.663Z,34.02
2023-05-09T00:23:14.568Z,33.74
2023-05-09T00:24:14.587Z,34.18
2023-05-09T00:25:14.839Z,33.18
2023-05-09T00:26:14.603Z,34.30
2023-05-09T00:27:14.639Z,35.63
2023-05-09T00:28:14.651Z,33.14
2023-05-09T00:29:14.683Z,31.54
2023-05-09T00:30:14.676Z,25.46
2023-05-09T00:31:14.701Z,25.89
2023-05-09T00:32:14.812Z,28.60
2023-05-09T00:33:14.752Z,30.64
2023-05-09T00:34:14.751Z,30.17
2023-05-09T00:35:15.028Z,27.33
2023-05-09T00:36:14.791Z,26.60
2023-05-09T00:37:14.818Z,28.91
2023-05-09T00:38:14.944Z,29.17
2023-05-09T00:39:14.901Z,31.43
2023-05-09T00:40:14.957Z,29.55
2023-05-09T00:41:15.000Z,32.53
2023-05-09T00:42:15.071Z,30.50
2023-05-09T00:43:15.099Z,31.13
2023-05-09T00:44:15.144Z,31.43
2023-05-09T00:45:15.318Z,29.59
2023-05-09T00:46:15.273Z,28.51
2023-05-09T00:47:15.326Z,29.75
2023-05-09T00:48:15.353Z,30.03
2023-05-09T00:49:15.412Z,30.21
2023-05-09T00:50:15.394Z,30.16
2023-05-09T00:51:15.403Z,30.60
2023-05-09T00:52:15.423Z,30.42
2023-05-09T00:53:15.450Z,33.59
2023-05-09T00:54:15.556Z,31.46
2023-05-09T00:55:15.634Z,29.96
2023-05-09T00:56:15.472Z,30.24
2023-05-09T00:57:15.501Z,30.62
2023-05-09T00:58:15.541Z,31.13
2023-05-09T00:59:17.485Z,32.64
2023-05-09T01:00:15.548Z,29.84
2023-05-09T01:01:15.681Z,33.84
2023-05-09T01:02:15.637Z,30.93
2023-05-09T01:03:15.691Z,28.16
2023-05-09T01:04:15.612Z,29.29
2023-05-09T01:05:15.941Z,28.62
2023-05-09T01:06:15.620Z,30.01
2023-05-09T01:07:15.651Z,27.76
2023-05-09T01:08:15.663Z,28.16
2023-05-09T01:09:15.725Z,28.74
2023-05-09T01:10:15.873Z,29.99
2023-05-09T01:11:15.843Z,30.35
2023-05-09T01:12:15.904Z,30.55
2023-05-09T01:13:15.955Z,30.51
2023-05-09T01:14:15.865Z,30.01
2023-05-09T01:15:16.036Z,27.96
2023-05-09T01:16:15.916Z,24.90
2023-05-09T01:17:15.884Z,28.39
2023-05-09T01:18:15.907Z,28.10
2023-05-09T01:19:15.922Z,28.24
2023-05-09T01:20:15.937Z,28.37
2023-05-09T01:21:15.929Z,20.56
2023-05-09T01:22:15.975Z,24.18
2023-05-09T01:23:15.968Z,24.29
2023-05-09T01:24:15.982Z,26.60
2023-05-09T01:25:16.182Z,26.82
2023-05-09T01:26:16.112Z,26.76
2023-05-09T01:27:16.034Z,27.85
2023-05-09T01:28:16.030Z,26.81
2023-05-09T01:29:16.043Z,27.59
2023-05-09T01:30:16.045Z,25.16
2023-05-09T01:31:16.089Z,25.53
2023-05-09T01:32:16.133Z,26.22
2023-05-09T01:33:16.176Z,29.01
2023-05-09T01:34:16.249Z,27.81
2023-05-09T01:35:16.508Z,27.45
2023-05-09T01:36:16.372Z,27.34
2023-05-09T01:37:16.435Z,25.78
2023-05-09T01:38:16.482Z,26.60
2023-05-09T01:39:16.533Z,27.95
2023-05-09T01:40:16.596Z,27.43
2023-05-09T01:41:16.701Z,28.72
2023-05-09T01:42:16.803Z,28.02
2023-05-09T01:43:16.776Z,28.28
2023-05-09T01:44:16.952Z,28.60
2023-05-09T01:45:17.279Z,25.00
2023-05-09T01:46:16.942Z,28.53
2023-05-09T01:47:16.994Z,29.62
2023-05-09T01:48:17.038Z,30.67
2023-05-09T01:49:17.100Z,33.08
2023-05-09T01:50:17.169Z,30.46
2023-05-09T01:51:17.213Z,30.09
2023-05-09T01:52:17.271Z,29.90
2023-05-09T01:53:17.317Z,29.28
2023-05-09T01:54:17.379Z,32.97
2023-05-09T01:55:17.452Z,30.21
2023-05-09T01:56:17.488Z,28.33
2023-05-09T01:57:17.565Z,31.00
2023-05-09T01:58:17.685Z,30.90
2023-05-09T01:59:17.650Z,28.93
2023-05-09T02:00:17.705Z,28.42
2023-05-09T02:01:17.851Z,28.20
2023-05-09T02:02:17.877Z,26.77
2023-05-09T02:03:17.978Z,25.20
2023-05-09T02:04:17.973Z,26.48
2023-05-09T02:05:18.099Z,30.04
2023-05-09T02:06:18.067Z,28.58
2023-05-09T02:07:18.188Z,28.46
2023-05-09T02:08:18.213Z,26.00
2023-05-09T02:09:18.291Z,31.02
2023-05-09T02:10:18.377Z,28.61
2023-05-09T02:11:18.461Z,30.01
2023-05-09T02:12:18.495Z,26.59
2023-05-09T02:13:18.629Z,30.01
2023-05-09T02:14:18.727Z,33.00
2023-05-09T02:15:18.695Z,29.14
2023-05-09T02:16:20.605Z,27.03
2023-05-09T02:17:18.814Z,30.04
2023-05-09T02:18:18.883Z,31.07
2023-05-09T02:19:18.961Z,33.09
2023-05-09T02:20:18.982Z,31.33
2023-05-09T02:21:18.991Z,31.48
2023-05-09T02:22:19.038Z,31.63
2023-05-09T02:23:19.021Z,32.98
2023-05-09T02:24:19.022Z,31.47
2023-05-09T02:25:19.030Z,34.50
2023-05-09T02:26:19.039Z,32.40
2023-05-09T02:27:19.073Z,32.89
2023-05-09T02:28:19.069Z,30.42
2023-05-09T02:29:19.070Z,32.92
2023-05-09T02:30:19.323Z,31.18
2023-05-09T02:31:19.103Z,29.65
2023-05-09T02:32:19.101Z,31.80
2023-05-09T02:33:19.155Z,33.31
2023-05-09T02:34:19.215Z,33.65
2023-05-09T02:35:19.288Z,33.48
2023-05-09T02:36:19.372Z,31.51
2023-05-09T02:37:19.416Z,33.58
2023-05-09T02:38:19.476Z,33.84
2023-05-09T02:39:19.541Z,36.47
2023-05-09T02:40:19.598Z,36.24
2023-05-09T02:41:19.668Z,37.75
2023-05-09T02:42:19.721Z,38.26
2023-05-09T02:43:19.784Z,41.27
2023-05-09T02:44:19.850Z,39.94
2023-05-09T02:45:19.915Z,38.54
2023-05-09T02:46:20.132Z,39.24
2023-05-09T02:47:20.047Z,38.83
2023-05-09T02:48:20.112Z,35.99
2023-05-09T02:49:31.498Z,38.32
2023-05-09T02:50:20.180Z,38.55
2023-05-09T02:51:20.202Z,39.07
2023-05-09T02:52:20.218Z,39.14
2023-05-09T02:53:20.234Z,41.62
2023-05-09T02:54:20.295Z,39.16
2023-05-09T02:55:20.283Z,41.12
2023-05-09T02:56:20.288Z,42.57
2023-05-09T02:57:20.346Z,43.67
2023-05-09T02:58:20.328Z,43.42
2023-05-09T02:59:20.353Z,40.48
2023-05-09T03:00:20.409Z,43.93
2023-05-09T03:01:20.394Z,43.32
2023-05-09T03:02:20.628Z,45.48
2023-05-09T03:03:20.621Z,44.70
2023-05-09T03:04:20.574Z,45.27
2023-05-09T03:05:20.644Z,46.00
2023-05-09T03:06:20.714Z,44.99
2023-05-09T03:07:20.797Z,45.81
2023-05-09T03:08:20.856Z,47.04
2023-05-09T03:09:20.915Z,45.14
2023-05-09T03:10:21.012Z,46.02
2023-05-09T03:11:21.036Z,43.51
2023-05-09T03:12:21.101Z,45.93
2023-05-09T03:13:21.308Z,47.97
2023-05-09T03:14:21.169Z,48.06
2023-05-09T03:15:21.185Z,48.15
2023-05-09T03:16:21.253Z,48.53
2023-05-09T03:17:21.328Z,47.85
2023-05-09T03:18:21.322Z,45.95
2023-05-09T03:19:21.245Z,44.56
2023-05-09T03:20:21.252Z,45.15
2023-05-09T03:21:21.277Z,47.27
2023-05-09T03:22:21.327Z,46.30
2023-05-09T03:23:21.310Z,45.62
2023-05-09T03:24:21.322Z,45.60
2023-05-09T03:25:21.375Z,47.78
2023-05-09T03:26:21.398Z,48.62
2023-05-09T03:27:21.466Z,45.94
2023-05-09T03:28:21.525Z,46.72
2023-05-09T03:29:21.613Z,48.27
2023-05-09T03:30:21.648Z,48.04
2023-05-09T03:31:21.750Z,47.97
2023-05-09T03:32:21.780Z,47.08
2023-05-09T03:33:21.835Z,49.86
2023-05-09T03:34:21.983Z,47.79
2023-05-09T03:35:21.956Z,48.41
2023-05-09T03:36:22.032Z,45.99
2023-05-09T03:37:22.084Z,47.97
2023-05-09T03:38:22.164Z,46.61
2023-05-09T03:39:22.223Z,46.06
2023-05-09T03:40:22.287Z,47.33
2023-05-09T03:41:22.349Z,48.02
2023-05-09T03:42:22.414Z,48.56
2023-05-09T03:43:22.491Z,48.80
2023-05-09T03:44:22.575Z,49.55
2023-05-09T03:45:22.668Z,47.81
2023-05-09T03:46:22.716Z,50.11
2023-05-09T03:47:22.772Z,48.99
2023-05-09T03:48:22.836Z,46.90
2023-05-09T03:49:22.900Z,50.27
2023-05-09T03:50:23.053Z,52.69
2023-05-09T03:51:23.040Z,50.57
2023-05-09T03:52:23.111Z,50.37
2023-05-09T03:53:23.145Z,50.68
2023-05-09T03:54:23.214Z,52.23
2023-05-09T03:55:23.300Z,51.25
2023-05-09T03:56:23.353Z,50.65
2023-05-09T03:57:23.424Z,50.39
2023-05-09T03:58:23.487Z,51.31
2023-05-09T03:59:23.551Z,51.32
2023-05-09T04:00:23.621Z,52.69
2023-05-09T04:01:23.691Z,50.34
2023-05-09T04:02:23.884Z,51.34
2023-05-09T04:03:23.942Z,51.87
2023-05-09T04:04:23.914Z,53.58
2023-05-09T04:05:23.990Z,52.59
2023-05-09T04:06:24.125Z,54.47
2023-05-09T04:07:24.109Z,49.68
2023-05-09T04:08:24.164Z,53.09
2023-05-09T04:09:24.260Z,51.45
2023-05-09T04:10:24.301Z,50.96
2023-05-09T04:11:24.367Z,53.21
2023-05-09T04:12:24.435Z,52.90
2023-05-09T04:13:24.607Z,51.76
2023-05-09T04:14:24.563Z,49.77
2023-05-09T04:15:24.633Z,51.30
2023-05-09T04:16:24.791Z,52.84
2023-05-09T04:17:24.809Z,52.15
2023-05-09T04:18:24.831Z,52.56
2023-05-09T04:19:24.892Z,53.77
2023-05-09T04:20:24.963Z,54.17
2023-05-09T04:21:25.040Z,50.08
2023-05-09T04:22:25.200Z,52.56
2023-05-09T04:23:25.173Z,51.65
2023-05-09T04:24:25.233Z,52.80
2023-05-09T04:25:25.305Z,53.34
2023-05-09T04:26:25.385Z,51.93
2023-05-09T04:27:25.443Z,52.38
2023-05-09T04:28:25.530Z,52.17
2023-05-09T04:29:26.430Z,51.02
2023-05-09T04:30:25.633Z,53.02
2023-05-09T04:31:25.795Z,48.78
2023-05-09T04:32:25.898Z,50.88
2023-05-09T04:33:25.869Z,53.07
2023-05-09T04:34:26.926Z,52.37
2023-05-09T04:35:25.929Z,52.71
2023-05-09T04:36:25.948Z,53.33
2023-05-09T04:37:26.010Z,53.75
2023-05-09T04:38:26.096Z,55.03
2023-05-09T04:39:26.006Z,56.74
2023-05-09T04:40:26.887Z,52.92
2023-05-09T04:41:26.129Z,53.93
2023-05-09T04:42:26.142Z,55.49
2023-05-09T04:43:26.132Z,52.84
2023-05-09T04:44:26.214Z,54.22
2023-05-09T04:45:26.284Z,55.53
2023-05-09T04:46:26.334Z,59.10
2023-05-09T04:47:26.240Z,60.12
2023-05-09T04:48:26.227Z,58.98
2023-05-09T04:49:26.247Z,56.62
2023-05-09T04:50:26.221Z,59.65
2023-05-09T04:51:26.221Z,60.82
2023-05-09T04:52:26.312Z,56.03
2023-05-09T04:53:26.373Z,60.38
2023-05-09T04:54:26.572Z,59.84
2023-05-09T04:55:26.531Z,58.60
2023-05-09T04:56:26.635Z,60.23
2023-05-09T04:57:26.720Z,56.15
2023-05-09T04:58:26.792Z,55.52
2023-05-09T04:59:26.869Z,59.86
2023-05-09T05:00:26.947Z,60.00
2023-05-09T05:01:27.073Z,60.67
2023-05-09T05:02:27.119Z,59.68
2023-05-09T05:03:27.185Z,59.26
2023-05-09T05:04:27.320Z,58.46
2023-05-09T05:05:27.727Z,58.22
2023-05-09T05:06:27.931Z,58.88
2023-05-09T05:07:27.499Z,57.61
2023-05-09T05:08:27.541Z,58.67
2023-05-09T05:09:27.632Z,58.54
2023-05-09T05:10:27.680Z,54.52
2023-05-09T05:11:27.752Z,50.05
2023-05-09T05:12:27.822Z,54.23
2023-05-09T05:13:27.987Z,55.10
2023-05-09T05:14:27.981Z,56.98
2023-05-09T05:15:28.029Z,57.74
2023-05-09T05:16:28.114Z,57.64
2023-05-09T05:17:28.123Z,57.75
2023-05-09T05:18:28.132Z,58.17
2023-05-09T05:19:28.159Z,56.74
2023-05-09T05:20:28.161Z,56.52
2023-05-09T05:21:28.176Z,56.95
2023-05-09T05:22:28.403Z,54.88
2023-05-09T05:23:28.250Z,55.49
2023-05-09T05:24:28.232Z,55.12
2023-05-09T05:25:28.235Z,56.75
2023-05-09T05:26:28.339Z,55.15
2023-05-09T05:27:28.275Z,55.50
2023-05-09T05:28:28.278Z,54.26
2023-05-09T05:29:28.311Z,53.74
2023-05-09T05:30:28.415Z,51.65
2023-05-09T05:31:28.516Z,52.32
2023-05-09T05:32:28.572Z,50.93
2023-05-09T05:33:28.569Z,50.61
2023-05-09T05:34:28.636Z,60.75
2023-05-09T05:35:28.711Z,77.93
2023-05-09T05:36:28.790Z,89.88
2023-05-09T05:37:28.872Z,114.51
2023-05-09T05:38:28.933Z,134.27
2023-05-09T05:39:28.995Z,144.17
2023-05-09T05:40:29.050Z,148.98
2023-05-09T05:41:29.076Z,152.10
2023-05-09T05:42:29.216Z,153.37
2023-05-09T05:43:29.174Z,151.57
2023-05-09T05:44:29.219Z,153.02
2023-05-09T05:45:29.252Z,148.96
2023-05-09T05:46:29.956Z,152.95
2023-05-09T05:47:29.340Z,148.66
2023-05-09T05:48:29.377Z,149.41
2023-05-09T05:49:30.079Z,148.10
2023-05-09T05:50:29.477Z,149.80
2023-05-09T05:51:29.482Z,154.88
2023-05-09T05:52:29.524Z,152.51
2023-05-09T05:53:30.808Z,152.22
2023-05-09T05:54:29.674Z,144.67
2023-05-09T05:55:29.682Z,133.85
2023-05-09T05:56:29.691Z,110.63
2023-05-09T05:57:29.719Z,111.12
2023-05-09T05:58:29.810Z,99.52
2023-05-09T05:59:29.731Z,98.85
2023-05-09T06:00:29.769Z,113.77
2023-05-09T06:01:29.759Z,111.48
2023-05-09T06:02:29.828Z,117.30
2023-05-09T06:03:29.842Z,125.51
2023-05-09T06:04:29.775Z,133.69
2023-05-09T06:05:29.783Z,152.83
2023-05-09T06:06:29.830Z,160.48
2023-05-09T06:07:29.826Z,168.91
2023-05-09T06:08:29.821Z,169.71
2023-05-09T06:09:29.833Z,171.98
2023-05-09T06:10:29.849Z,172.87
2023-05-09T06:11:29.877Z,183.39
2023-05-09T06:12:29.891Z,205.34
2023-05-09T06:13:29.917Z,211.21
2023-05-09T06:14:30.025Z,211.86
2023-05-09T06:15:29.926Z,212.36
2023-05-09T06:16:30.019Z,216.41
2023-05-09T06:17:29.970Z,216.21
2023-05-09T06:18:29.949Z,213.72
2023-05-09T06:19:29.951Z,220.36
2023-05-09T06:20:29.956Z,220.19
2023-05-09T06:21:29.970Z,230.21
2023-05-09T06:22:30.030Z,228.74
2023-05-09T06:23:29.997Z,237.09
2023-05-09T06:24:35.759Z,237.06
2023-05-09T06:25:30.968Z,237.23
2023-05-09T06:26:30.032Z,238.38
2023-05-09T06:27:29.997Z,226.98
2023-05-09T06:28:30.030Z,241.62
2023-05-09T06:29:30.029Z,245.62
2023-05-09T06:30:30.133Z,240.48
2023-05-09T06:31:30.094Z,232.58
2023-05-09T06:32:30.115Z,226.08
2023-05-09T06:33:30.083Z,223.50
2023-05-09T06:34:30.088Z,222.50
2023-05-09T06:35:30.059Z,225.22
2023-05-09T06:36:30.110Z,232.24
2023-05-09T06:37:30.981Z,230.73
2023-05-09T06:38:30.126Z,225.98
2023-05-09T06:39:30.122Z,221.39
2023-05-09T06:40:31.084Z,217.35
2023-05-09T06:41:30.166Z,224.17
2023-05-09T06:42:30.195Z,226.55
2023-05-09T06:43:30.187Z,227.37
2023-05-09T06:44:30.203Z,241.04
2023-05-09T06:45:30.316Z,249.89
2023-05-09T06:46:30.451Z,241.36
2023-05-09T06:47:30.461Z,243.40
2023-05-09T06:48:30.493Z,246.57
2023-05-09T06:49:30.524Z,234.78
2023-05-09T06:50:32.789Z,240.32
2023-05-09T06:51:30.702Z,240.60
2023-05-09T06:52:30.800Z,245.02
2023-05-09T06:53:30.857Z,248.30
2023-05-09T06:54:31.061Z,249.64
2023-05-09T06:55:30.958Z,246.71
2023-05-09T06:56:31.029Z,210.00
2023-05-09T06:57:31.142Z,170.42
2023-05-09T06:58:31.213Z,177.30
2023-05-09T06:59:31.282Z,190.39
2023-05-09T07:00:31.309Z,198.79
2023-05-09T07:01:31.548Z,199.36
2023-05-09T07:02:31.672Z,200.23
2023-05-09T07:03:31.548Z,197.10
2023-05-09T07:04:31.596Z,192.89
2023-05-09T07:05:31.665Z,189.16
2023-05-09T07:06:31.729Z,196.05
2023-05-09T07:07:31.832Z,202.31
2023-05-09T07:08:31.824Z,202.51
2023-05-09T07:09:31.805Z,203.21
2023-05-09T07:10:31.820Z,205.35
2023-05-09T07:11:31.839Z,209.88
2023-05-09T07:12:31.814Z,219.66
2023-05-09T07:13:31.985Z,221.14
2023-05-09T07:14:31.841Z,220.81
2023-05-09T07:15:41.476Z,231.31
2023-05-09T07:16:34.075Z,231.57
2023-05-09T07:17:31.821Z,233.00
2023-05-09T07:18:31.899Z,233.76
2023-05-09T07:19:32.497Z,236.21
2023-05-09T07:20:31.821Z,246.03
2023-05-09T07:21:31.819Z,245.52
2023-05-09T07:22:33.059Z,250.00
2023-05-09T07:23:31.883Z,244.44
2023-05-09T07:24:31.826Z,247.88
2023-05-09T07:25:31.818Z,248.36
2023-05-09T07:26:31.882Z,243.51
2023-05-09T07:27:31.921Z,240.83
2023-05-09T07:28:31.978Z,242.95
2023-05-09T07:29:32.005Z,238.25
2023-05-09T07:30:32.072Z,235.22
2023-05-09T07:31:32.234Z,240.40
2023-05-09T07:32:32.203Z,239.43
2023-05-09T07:33:32.220Z,237.07
2023-05-09T07:34:32.327Z,239.04
2023-05-09T07:35:32.475Z,241.53
2023-05-09T07:36:34.788Z,244.64
2023-05-09T07:37:32.325Z,246.45
2023-05-09T07:38:32.285Z,244.35
2023-05-09T07:39:32.289Z,243.33
2023-05-09T07:40:32.324Z,242.00
2023-05-09T07:41:32.318Z,244.94
2023-05-09T07:42:32.305Z,242.77
2023-05-09T07:43:32.490Z,242.77
2023-05-09T07:44:32.416Z,243.98
2023-05-09T07:45:32.338Z,241.05
2023-05-09T07:46:32.364Z,240.19
2023-05-09T07:47:33.113Z,243.11
2023-05-09T07:48:32.313Z,244.71
2023-05-09T07:49:32.433Z,246.47
2023-05-09T07:50:32.462Z,242.87
2023-05-09T07:51:32.624Z,242.12
2023-05-09T07:52:32.321Z,241.43
2023-05-09T07:53:32.293Z,234.96
2023-05-09T07:54:32.300Z,231.38
2023-05-09T07:55:32.680Z,225.84
2023-05-09T07:56:32.411Z,227.71
2023-05-09T07:57:32.476Z,227.03
2023-05-09T07:58:32.358Z,227.27
2023-05-09T07:59:32.332Z,227.79
2023-05-09T08:00:32.328Z,224.37
2023-05-09T08:01:32.344Z,213.93
2023-05-09T08:02:32.552Z,211.22
2023-05-09T08:03:32.590Z,207.88
2023-05-09T08:04:32.441Z,197.44
2023-05-09T08:05:32.540Z,198.41
2023-05-09T08:06:32.398Z,198.42
2023-05-09T08:07:32.467Z,198.77
2023-05-09T08:08:32.519Z,202.58
2023-05-09T08:09:32.348Z,201.97
2023-05-09T08:10:32.387Z,197.35
2023-05-09T08:11:32.363Z,186.22
2023-05-09T08:12:32.380Z,183.89
2023-05-09T08:13:32.466Z,189.01
2023-05-09T08:14:32.543Z,191.03
2023-05-09T08:15:32.378Z,192.77
2023-05-09T08:16:32.609Z,192.19
2023-05-09T08:17:32.499Z,192.34
2023-05-09T08:18:32.383Z,192.29
2023-05-09T08:19:32.421Z,188.43
2023-05-09T08:20:32.395Z,192.70
2023-05-09T08:21:32.365Z,188.40
2023-05-09T08:22:32.596Z,194.40
2023-05-09T08:23:32.372Z,194.89
2023-05-09T08:24:32.376Z,191.55
2023-05-09T08:25:32.400Z,189.08
2023-05-09T08:26:32.362Z,182.77
2023-05-09T08:27:32.363Z,188.03
2023-05-09T08:28:32.418Z,187.73
2023-05-09T08:29:32.353Z,185.82
2023-05-09T08:30:32.350Z,181.67
2023-05-09T08:31:32.382Z,183.99
2023-05-09T08:32:32.359Z,7.79
2023-05-09T08:33:32.341Z,0.00
2023-05-09T08:34:32.347Z,0.00
2023-05-09T08:35:32.436Z,0.00
2023-05-09T08:36:32.314Z,0.00
2023-05-09T08:37:32.308Z,0.00
2023-05-09T08:38:32.445Z,0.00
2023-05-09T08:39:32.538Z,0.00
2023-05-09T08:40:32.350Z,0.00
2023-05-09T08:41:32.383Z,0.00
2023-05-09T08:42:32.401Z,0.00
2023-05-09T08:43:32.408Z,0.00
2023-05-09T08:44:32.403Z,0.00
2023-05-09T08:45:32.411Z,0.00
2023-05-09T08:46:32.491Z,0.00
2023-05-09T08:47:32.456Z,13.27
2023-05-09T08:48:35.247Z,30.61
2023-05-09T08:49:32.456Z,51.60
2023-05-09T08:50:32.470Z,52.10
2023-05-09T08:51:32.512Z,26.14
2023-05-09T08:52:32.476Z,0.00
2023-05-09T08:53:32.492Z,26.20
2023-05-09T08:54:32.603Z,27.21
2023-05-09T08:55:32.499Z,43.05
2023-05-09T08:56:32.501Z,0.00
2023-05-09T08:57:32.514Z,12.78
2023-05-09T08:58:32.536Z,1.43
2023-05-09T08:59:32.551Z,0.00
2023-05-09T09:00:32.621Z,4.76
2023-05-09T09:01:32.722Z,30.06
2023-05-09T09:02:32.792Z,58.38
2023-05-09T09:03:32.848Z,80.08
2023-05-09T09:04:32.948Z,93.94
2023-05-09T09:05:41.218Z,107.92
2023-05-09T09:06:33.984Z,108.25
2023-05-09T09:07:33.059Z,109.96
2023-05-09T09:08:32.974Z,115.13
2023-05-09T09:09:33.103Z,125.06
2023-05-09T09:10:33.098Z,138.97
2023-05-09T09:11:33.167Z,146.28
2023-05-09T09:12:33.012Z,153.53
2023-05-09T09:13:33.124Z,161.50
2023-05-09T09:14:33.021Z,167.60
2023-05-09T09:15:33.099Z,175.65
2023-05-09T09:16:33.079Z,181.01
2023-05-09T09:17:33.078Z,184.62
2023-05-09T09:18:33.060Z,189.47
2023-05-09T09:19:33.069Z,192.17
2023-05-09T09:20:33.062Z,192.33
2023-05-09T09:21:33.093Z,192.93
2023-05-09T09:22:33.106Z,195.02
2023-05-09T09:23:33.108Z,198.21
2023-05-09T09:24:33.072Z,203.87
2023-05-09T09:25:33.110Z,192.71
2023-05-09T09:26:33.164Z,194.71
2023-05-09T09:27:33.074Z,198.05
2023-05-09T09:28:33.091Z,203.17
2023-05-09T09:29:33.076Z,212.36
2023-05-09T09:30:33.044Z,214.79
2023-05-09T09:31:33.224Z,214.92
2023-05-09T09:32:33.100Z,215.40
2023-05-09T09:33:33.026Z,136.47
2023-05-09T09:34:33.157Z,95.79
2023-05-09T09:35:33.025Z,48.70
2023-05-09T09:36:33.030Z,26.42
2023-05-09T09:37:33.034Z,24.14
2023-05-09T09:38:33.040Z,21.39
2023-05-09T09:39:33.055Z,10.19
2023-05-09T09:40:33.061Z,13.92
2023-05-09T09:41:33.066Z,103.87
2023-05-09T09:42:33.165Z,117.81
2023-05-09T09:43:33.267Z,133.89
2023-05-09T09:44:33.097Z,146.78
2023-05-09T09:45:33.160Z,158.67
2023-05-09T09:46:33.251Z,160.89
2023-05-09T09:47:33.326Z,158.46
2023-05-09T09:48:33.358Z,155.34
2023-05-09T09:49:33.392Z,132.63
2023-05-09T09:50:33.428Z,133.45
2023-05-09T09:51:33.495Z,147.04
2023-05-09T09:52:33.498Z,156.62
2023-05-09T09:53:33.575Z,161.65
2023-05-09T09:54:33.589Z,163.28
2023-05-09T09:55:33.602Z,165.22
2023-05-09T09:56:33.632Z,167.14
2023-05-09T09:57:33.672Z,171.10
2023-05-09T09:58:33.678Z,174.38
2023-05-09T09:59:33.707Z,177.15
2023-05-09T10:00:33.704Z,180.55
2023-05-09T10:01:33.844Z,183.35
2023-05-09T10:02:33.794Z,184.52
2023-05-09T10:03:33.782Z,188.92
2023-05-09T10:04:33.802Z,193.88
2023-05-09T10:05:33.770Z,199.07
2023-05-09T10:06:33.793Z,201.34
2023-05-09T10:07:33.830Z,200.91
2023-05-09T10:08:33.827Z,203.43
2023-05-09T10:09:33.820Z,201.63
2023-05-09T10:10:33.847Z,201.68
2023-05-09T10:11:33.807Z,202.09
2023-05-09T10:12:33.796Z,201.84
2023-05-09T10:13:33.820Z,202.35
2023-05-09T10:14:35.320Z,203.07
2023-05-09T10:15:49.440Z,204.22
2023-05-09T10:16:43.528Z,201.76
2023-05-09T10:17:34.967Z,201.84
2023-05-09T10:18:34.074Z,202.56
2023-05-09T10:19:33.809Z,202.86
2023-05-09T10:20:33.844Z,204.30
2023-05-09T10:21:33.806Z,205.68
2023-05-09T10:22:33.812Z,208.42
2023-05-09T10:23:33.826Z,177.55
2023-05-09T10:24:33.812Z,120.16
2023-05-09T10:25:33.843Z,94.21
2023-05-09T10:26:33.822Z,76.31
2023-05-09T10:27:33.875Z,84.35
2023-05-09T10:28:33.846Z,83.54
2023-05-09T10:29:33.954Z,90.81
2023-05-09T10:30:34.301Z,130.08
2023-05-09T10:31:33.943Z,150.64
2023-05-09T10:32:33.941Z,163.70
2023-05-09T10:33:33.876Z,170.89
2023-05-09T10:34:33.892Z,172.97
2023-05-09T10:35:33.967Z,170.26
2023-05-09T10:36:33.901Z,173.25
2023-05-09T10:37:33.938Z,179.61
2023-05-09T10:38:34.555Z,186.54
2023-05-09T10:39:33.906Z,189.53
2023-05-09T10:40:33.904Z,202.36
2023-05-09T10:41:33.924Z,209.05
2023-05-09T10:42:33.956Z,213.76
2023-05-09T10:43:35.449Z,217.24
2023-05-09T10:44:33.999Z,221.12
2023-05-09T10:45:33.950Z,222.35
2023-05-09T10:46:34.125Z,225.46
2023-05-09T10:47:34.051Z,224.26
2023-05-09T10:48:33.987Z,223.89
2023-05-09T10:49:36.820Z,227.03
2023-05-09T10:50:33.957Z,227.20
2023-05-09T10:51:33.979Z,227.66
2023-05-09T10:52:33.960Z,228.03
2023-05-09T10:53:33.961Z,227.49
2023-05-09T10:54:33.958Z,229.04
2023-05-09T10:55:33.963Z,229.06
2023-05-09T10:56:33.956Z,229.72
2023-05-09T10:57:33.960Z,227.91
2023-05-09T10:58:34.072Z,228.69
2023-05-09T10:59:34.001Z,227.10
2023-05-09T11:00:33.988Z,229.43
2023-05-09T11:01:34.004Z,231.05
2023-05-09T11:02:34.135Z,228.64
2023-05-09T11:03:34.041Z,227.68
2023-05-09T11:04:33.996Z,227.14
2023-05-09T11:05:33.987Z,227.01
2023-05-09T11:06:33.994Z,225.76
2023-05-09T11:07:33.995Z,226.22
2023-05-09T11:08:33.991Z,225.53
2023-05-09T11:09:34.030Z,226.14
2023-05-09T11:10:34.025Z,225.97
2023-05-09T11:11:34.025Z,225.16
2023-05-09T11:12:34.036Z,223.15
2023-05-09T11:13:34.076Z,223.21
2023-05-09T11:14:34.041Z,223.15
2023-05-09T11:15:34.036Z,222.20
2023-05-09T11:16:34.039Z,220.21
2023-05-09T11:17:34.050Z,218.18
2023-05-09T11:18:34.148Z,217.36
2023-05-09T11:19:34.071Z,216.00
2023-05-09T11:20:34.060Z,214.41
2023-05-09T11:21:34.045Z,214.97
2023-05-09T11:22:34.050Z,213.17
2023-05-09T11:23:34.057Z,213.23
2023-05-09T11:24:34.044Z,213.22
2023-05-09T11:25:34.040Z,211.86
2023-05-09T11:26:34.105Z,212.91
2023-05-09T11:27:34.040Z,211.53
2023-05-09T11:28:34.071Z,213.20
2023-05-09T11:29:34.050Z,212.51
2023-05-09T11:30:34.152Z,212.77
2023-05-09T11:31:34.090Z,212.54
2023-05-09T11:32:34.117Z,210.50
2023-05-09T11:33:34.071Z,211.47
2023-05-09T11:34:34.177Z,210.59
2023-05-09T11:35:34.069Z,211.22
2023-05-09T11:36:34.145Z,211.33
2023-05-09T11:37:34.071Z,210.10
2023-05-09T11:38:34.055Z,209.16
2023-05-09T11:39:34.052Z,208.83
2023-05-09T11:40:34.055Z,209.97
2023-05-09T11:41:34.069Z,209.39
2023-05-09T11:42:34.074Z,208.45
2023-05-09T11:43:34.115Z,207.86
2023-05-09T11:44:34.045Z,208.67
2023-05-09T11:45:34.061Z,206.29
2023-05-09T11:46:34.206Z,206.04
2023-05-09T11:47:34.065Z,205.63
2023-05-09T11:48:34.051Z,206.28
2023-05-09T11:49:34.048Z,203.29
2023-05-09T11:50:34.135Z,203.41
2023-05-09T11:51:34.047Z,203.35
2023-05-09T11:52:34.055Z,204.07
2023-05-09T11:53:34.057Z,202.42
2023-05-09T11:54:34.058Z,201.20
2023-05-09T11:55:34.061Z,202.81
2023-05-09T11:56:34.066Z,202.03
2023-05-09T11:57:34.096Z,200.61
2023-05-09T11:58:34.127Z,200.39
2023-05-09T11:59:34.093Z,200.30
2023-05-09T12:00:34.097Z,200.63
2023-05-09T12:01:34.099Z,198.08
2023-05-09T12:02:34.218Z,196.99
2023-05-09T12:03:34.149Z,198.60
2023-05-09T12:04:34.181Z,198.43
2023-05-09T12:05:34.145Z,197.40
2023-05-09T12:06:34.158Z,196.32
2023-05-09T12:07:34.146Z,195.40
2023-05-09T12:08:34.144Z,195.68
2023-05-09T12:09:34.194Z,196.55
2023-05-09T12:10:34.180Z,196.86
2023-05-09T12:11:34.180Z,195.93
2023-05-09T12:12:34.184Z,195.44
2023-05-09T12:13:34.196Z,193.82
2023-05-09T12:14:34.226Z,192.67
2023-05-09T12:15:34.224Z,193.92
2023-05-09T12:16:34.333Z,191.94
2023-05-09T12:17:34.307Z,193.26
2023-05-09T12:18:34.255Z,192.73
2023-05-09T12:19:34.274Z,193.39
2023-05-09T12:20:34.284Z,193.11
2023-05-09T12:21:34.303Z,192.25
2023-05-09T12:22:34.415Z,190.34
2023-05-09T12:23:34.339Z,190.49
2023-05-09T12:24:34.338Z,192.09
2023-05-09T12:25:34.407Z,191.54
2023-05-09T12:26:34.371Z,191.03
2023-05-09T12:27:34.375Z,190.71
2023-05-09T12:28:34.379Z,188.77
2023-05-09T12:29:34.403Z,189.09
2023-05-09T12:30:34.438Z,188.20
2023-05-09T12:31:34.480Z,187.61
2023-05-09T12:32:34.532Z,188.46
2023-05-09T12:33:34.491Z,188.61
2023-05-09T12:34:34.496Z,187.33
2023-05-09T12:35:34.502Z,187.10
2023-05-09T12:36:34.491Z,187.11
2023-05-09T12:37:34.521Z,187.10
2023-05-09T12:38:34.631Z,183.86
2023-05-09T12:39:34.504Z,183.75
2023-05-09T12:40:34.517Z,182.74
2023-05-09T12:41:41.484Z,183.45